sensor_id;sensor_type;location;lat;lon;timestamp;temperature;humidity
32787;DHT22;19139;49.372;8.580;2023-02-01T00:02:19;16.00;88.30
32787;DHT22;19139;49.372;8.580;2023-02-01T00:04:51;16.00;88.40
32787;DHT22;19139;49.372;8.580;2023-02-01T00:07:22;16.00;88.40
32787;DHT22;19139;49.372;8.580;2023-02-01T00:09:49;16.00;88.40
32787;DHT22;19139;49.372;8.580;2023-02-01T00:12:20;16.00;88.40
32787;DHT22;19139;49.372;8.580;2023-02-01T00:14:52;16.00;88.40
32787;DHT22;19139;49.372;8.580;2023-02-01T00:17:23;16.00;88.30
32787;DHT22;19139;49.372;8.580;2023-02-01T00:19:55;16.00;88.30
32787;DHT22;19139;49.372;8.580;2023-02-01T00:22:27;16.00;88.40
32787;DHT22;19139;49.372;8.580;2023-02-01T00:24:58;16.00;88.30
32787;DHT22;19139;49.372;8.580;2023-02-01T00:27:30;16.00;88.30
32787;DHT22;19139;49.372;8.580;2023-02-01T00:30:02;16.00;88.30
32787;DHT22;19139;49.372;8.580;2023-02-01T00:32:29;16.00;88.30
32787;DHT22;19139;49.372;8.580;2023-02-01T00:35:00;16.00;88.30
32787;DHT22;19139;49.372;8.580;2023-02-01T00:37:32;16.00;88.30
32787;DHT22;19139;49.372;8.580;2023-02-01T00:40:03;16.00;88.30
32787;DHT22;19139;49.372;8.580;2023-02-01T00:42:35;16.00;88.30
32787;DHT22;19139;49.372;8.580;2023-02-01T00:45:07;16.00;88.30
32787;DHT22;19139;49.372;8.580;2023-02-01T00:47:39;16.00;88.30
32787;DHT22;19139;49.372;8.580;2023-02-01T00:50:10;16.00;88.30
32787;DHT22;19139;49.372;8.580;2023-02-01T00:52:42;16.00;88.30
32787;DHT22;19139;49.372;8.580;2023-02-01T00:55:08;16.00;88.30
32787;DHT22;19139;49.372;8.580;2023-02-01T00:57:40;16.00;88.30
32787;DHT22;19139;49.372;8.580;2023-02-01T01:00:12;16.00;88.30
32787;DHT22;19139;49.372;8.580;2023-02-01T01:02:43;16.00;88.20
32787;DHT22;19139;49.372;8.580;2023-02-01T01:05:15;16.00;88.30
32787;DHT22;19139;49.372;8.580;2023-02-01T01:07:46;16.00;88.30
32787;DHT22;19139;49.372;8.580;2023-02-01T01:10:18;16.00;88.30
32787;DHT22;19139;49.372;8.580;2023-02-01T01:12:49;16.00;88.30
32787;DHT22;19139;49.372;8.580;2023-02-01T01:15:22;16.00;88.30
32787;DHT22;19139;49.372;8.580;2023-02-01T01:17:48;16.00;89.10
32787;DHT22;19139;49.372;8.580;2023-02-01T01:20:15;16.00;88.20
32787;DHT22;19139;49.372;8.580;2023-02-01T01:22:43;16.00;88.30
32787;DHT22;19139;49.372;8.580;2023-02-01T01:25:09;16.00;88.30
32787;DHT22;19139;49.372;8.580;2023-02-01T01:27:36;16.00;88.20
32787;DHT22;19139;49.372;8.580;2023-02-01T01:30:02;16.00;88.20
32787;DHT22;19139;49.372;8.580;2023-02-01T01:32:29;16.00;88.30
32787;DHT22;19139;49.372;8.580;2023-02-01T01:34:56;16.00;88.20
32787;DHT22;19139;49.372;8.580;2023-02-01T01:37:22;16.00;88.30
32787;DHT22;19139;49.372;8.580;2023-02-01T01:39:49;16.00;88.20
32787;DHT22;19139;49.372;8.580;2023-02-01T01:42:21;16.00;88.20
32787;DHT22;19139;49.372;8.580;2023-02-01T01:50:49;16.00;88.30
32787;DHT22;19139;49.372;8.580;2023-02-01T01:53:26;16.00;88.30
32787;DHT22;19139;49.372;8.580;2023-02-01T01:55:58;16.00;88.30
32787;DHT22;19139;49.372;8.580;2023-02-01T01:58:32;16.00;88.30
32787;DHT22;19139;49.372;8.580;2023-02-01T02:00:59;16.00;88.20
32787;DHT22;19139;49.372;8.580;2023-02-01T02:03:42;16.00;88.30
32787;DHT22;19139;49.372;8.580;2023-02-01T02:06:20;16.00;89.00
32787;DHT22;19139;49.372;8.580;2023-02-01T02:08:49;16.00;88.30
32787;DHT22;19139;49.372;8.580;2023-02-01T02:11:16;16.00;88.20
32787;DHT22;19139;49.372;8.580;2023-02-01T02:13:48;16.00;88.20
32787;DHT22;19139;49.372;8.580;2023-02-01T02:22:27;16.00;88.30
32787;DHT22;19139;49.372;8.580;2023-02-01T02:25:22;16.00;88.30
32787;DHT22;19139;49.372;8.580;2023-02-01T02:28:02;16.00;88.30
32787;DHT22;19139;49.372;8.580;2023-02-01T02:30:53;16.00;88.30
32787;DHT22;19139;49.372;8.580;2023-02-01T02:36:13;16.00;88.20
32787;DHT22;19139;49.372;8.580;2023-02-01T02:39:13;16.00;88.20
32787;DHT22;19139;49.372;8.580;2023-02-01T02:45:17;16.00;88.20
32787;DHT22;19139;49.372;8.580;2023-02-01T02:48:27;16.00;88.20
32787;DHT22;19139;49.372;8.580;2023-02-01T02:51:05;16.00;88.10
32787;DHT22;19139;49.372;8.580;2023-02-01T02:54:00;16.00;88.20
32787;DHT22;19139;49.372;8.580;2023-02-01T02:56:53;16.00;88.20
32787;DHT22;19139;49.372;8.580;2023-02-01T02:59:45;16.00;88.20
32787;DHT22;19139;49.372;8.580;2023-02-01T03:02:33;16.00;89.00
32787;DHT22;19139;49.372;8.580;2023-02-01T03:05:23;16.00;88.20
32787;DHT22;19139;49.372;8.580;2023-02-01T03:07:54;16.00;88.20
32787;DHT22;19139;49.372;8.580;2023-02-01T03:10:27;16.00;88.10
32787;DHT22;19139;49.372;8.580;2023-02-01T03:13:06;16.00;88.20
32787;DHT22;19139;49.372;8.580;2023-02-01T03:15:57;16.00;88.20
32787;DHT22;19139;49.372;8.580;2023-02-01T03:18:47;16.00;88.30
32787;DHT22;19139;49.372;8.580;2023-02-01T03:22:00;16.00;88.20
32787;DHT22;19139;49.372;8.580;2023-02-01T03:24:34;16.00;88.10
32787;DHT22;19139;49.372;8.580;2023-02-01T03:27:17;16.00;88.10
32787;DHT22;19139;49.372;8.580;2023-02-01T03:29:53;16.00;88.10
32787;DHT22;19139;49.372;8.580;2023-02-01T03:32:21;16.00;88.10
32787;DHT22;19139;49.372;8.580;2023-02-01T03:34:49;16.00;88.10
32787;DHT22;19139;49.372;8.580;2023-02-01T03:37:26;16.00;88.10
32787;DHT22;19139;49.372;8.580;2023-02-01T03:42:37;16.00;88.10
32787;DHT22;19139;49.372;8.580;2023-02-01T03:47:35;16.00;88.10
32787;DHT22;19139;49.372;8.580;2023-02-01T03:50:06;16.00;88.10
32787;DHT22;19139;49.372;8.580;2023-02-01T03:52:39;16.00;88.10
32787;DHT22;19139;49.372;8.580;2023-02-01T03:55:15;16.00;88.10
32787;DHT22;19139;49.372;8.580;2023-02-01T03:57:52;16.00;88.10
32787;DHT22;19139;49.372;8.580;2023-02-01T04:00:22;16.00;88.10
32787;DHT22;19139;49.372;8.580;2023-02-01T04:02:50;16.00;88.10
32787;DHT22;19139;49.372;8.580;2023-02-01T04:05:22;16.00;88.10
32787;DHT22;19139;49.372;8.580;2023-02-01T04:07:49;16.00;88.10
32787;DHT22;19139;49.372;8.580;2023-02-01T04:10:15;16.00;88.10
32787;DHT22;19139;49.372;8.580;2023-02-01T04:12:45;16.00;88.10
32787;DHT22;19139;49.372;8.580;2023-02-01T04:15:12;16.00;88.10
32787;DHT22;19139;49.372;8.580;2023-02-01T04:17:38;16.00;88.10
32787;DHT22;19139;49.372;8.580;2023-02-01T04:20:05;16.00;88.10
32787;DHT22;19139;49.372;8.580;2023-02-01T04:22:32;16.00;88.10
32787;DHT22;19139;49.372;8.580;2023-02-01T04:24:59;16.00;88.10
32787;DHT22;19139;49.372;8.580;2023-02-01T04:27:25;16.00;88.10
32787;DHT22;19139;49.372;8.580;2023-02-01T04:29:52;16.00;88.10
32787;DHT22;19139;49.372;8.580;2023-02-01T04:32:19;16.00;88.10
32787;DHT22;19139;49.372;8.580;2023-02-01T04:34:46;16.00;88.10
32787;DHT22;19139;49.372;8.580;2023-02-01T04:37:12;16.00;88.10
32787;DHT22;19139;49.372;8.580;2023-02-01T04:39:39;16.00;88.00
32787;DHT22;19139;49.372;8.580;2023-02-01T04:42:10;16.00;88.10
32787;DHT22;19139;49.372;8.580;2023-02-01T04:44:42;16.00;88.10
32787;DHT22;19139;49.372;8.580;2023-02-01T04:47:14;16.00;88.10
32787;DHT22;19139;49.372;8.580;2023-02-01T04:49:42;16.00;88.00
32787;DHT22;19139;49.372;8.580;2023-02-01T04:52:13;16.00;88.90
32787;DHT22;19139;49.372;8.580;2023-02-01T04:54:44;16.00;88.10
32787;DHT22;19139;49.372;8.580;2023-02-01T04:57:11;16.00;88.10
32787;DHT22;19139;49.372;8.580;2023-02-01T04:59:44;16.00;88.10
32787;DHT22;19139;49.372;8.580;2023-02-01T05:02:11;16.00;88.10
32787;DHT22;19139;49.372;8.580;2023-02-01T05:04:42;16.00;88.00
32787;DHT22;19139;49.372;8.580;2023-02-01T05:07:14;16.00;88.00
32787;DHT22;19139;49.372;8.580;2023-02-01T05:09:40;16.00;88.10
32787;DHT22;19139;49.372;8.580;2023-02-01T05:12:12;16.00;88.00
32787;DHT22;19139;49.372;8.580;2023-02-01T05:15:02;16.00;88.10
32787;DHT22;19139;49.372;8.580;2023-02-01T05:17:33;15.90;87.90
32787;DHT22;19139;49.372;8.580;2023-02-01T05:20:00;15.90;88.00
32787;DHT22;19139;49.372;8.580;2023-02-01T05:22:31;16.00;88.00
32787;DHT22;19139;49.372;8.580;2023-02-01T05:25:03;15.90;87.90
32787;DHT22;19139;49.372;8.580;2023-02-01T05:27:32;15.90;87.90
32787;DHT22;19139;49.372;8.580;2023-02-01T05:30:05;16.00;88.10
32787;DHT22;19139;49.372;8.580;2023-02-01T05:32:32;16.00;88.00
32787;DHT22;19139;49.372;8.580;2023-02-01T05:34:59;16.00;88.00
32787;DHT22;19139;49.372;8.580;2023-02-01T05:37:30;16.00;88.00
32787;DHT22;19139;49.372;8.580;2023-02-01T05:40:03;16.00;88.00
32787;DHT22;19139;49.372;8.580;2023-02-01T05:42:34;15.90;87.90
32787;DHT22;19139;49.372;8.580;2023-02-01T05:45:01;16.00;88.00
32787;DHT22;19139;49.372;8.580;2023-02-01T05:47:33;16.00;88.00
32787;DHT22;19139;49.372;8.580;2023-02-01T05:50:05;16.00;87.90
32787;DHT22;19139;49.372;8.580;2023-02-01T05:52:36;15.90;87.90
32787;DHT22;19139;49.372;8.580;2023-02-01T05:55:08;15.90;87.90
32787;DHT22;19139;49.372;8.580;2023-02-01T05:57:40;15.90;87.90
32787;DHT22;19139;49.372;8.580;2023-02-01T06:00:11;15.90;87.90
32787;DHT22;19139;49.372;8.580;2023-02-01T06:02:38;16.00;88.00
32787;DHT22;19139;49.372;8.580;2023-02-01T06:05:05;16.00;88.10
32787;DHT22;19139;49.372;8.580;2023-02-01T06:07:32;15.90;87.90
32787;DHT22;19139;49.372;8.580;2023-02-01T06:09:59;15.90;87.90
32787;DHT22;19139;49.372;8.580;2023-02-01T06:12:25;15.90;87.90
32787;DHT22;19139;49.372;8.580;2023-02-01T06:14:54;15.90;87.90
32787;DHT22;19139;49.372;8.580;2023-02-01T06:17:21;15.90;87.90
32787;DHT22;19139;49.372;8.580;2023-02-01T06:19:47;15.90;87.90
32787;DHT22;19139;49.372;8.580;2023-02-01T06:22:14;15.90;87.90
32787;DHT22;19139;49.372;8.580;2023-02-01T06:24:42;15.90;87.90
32787;DHT22;19139;49.372;8.580;2023-02-01T06:27:08;16.00;88.00
32787;DHT22;19139;49.372;8.580;2023-02-01T06:29:36;15.90;87.90
32787;DHT22;19139;49.372;8.580;2023-02-01T06:32:02;15.90;87.90
32787;DHT22;19139;49.372;8.580;2023-02-01T06:34:34;15.90;87.90
32787;DHT22;19139;49.372;8.580;2023-02-01T06:37:05;15.90;87.90
32787;DHT22;19139;49.372;8.580;2023-02-01T06:39:32;16.00;88.20
32787;DHT22;19139;49.372;8.580;2023-02-01T06:42:04;16.00;88.70
32787;DHT22;19139;49.372;8.580;2023-02-01T06:44:35;16.10;88.90
32787;DHT22;19139;49.372;8.580;2023-02-01T06:47:04;16.10;89.30
32787;DHT22;19139;49.372;8.580;2023-02-01T06:49:35;16.10;89.50
32787;DHT22;19139;49.372;8.580;2023-02-01T06:52:02;16.10;89.60
32787;DHT22;19139;49.372;8.580;2023-02-01T06:54:33;16.10;89.80
32787;DHT22;19139;49.372;8.580;2023-02-01T06:57:05;16.10;89.90
32787;DHT22;19139;49.372;8.580;2023-02-01T06:59:32;16.10;90.00
32787;DHT22;19139;49.372;8.580;2023-02-01T07:02:03;16.10;90.00
32787;DHT22;19139;49.372;8.580;2023-02-01T07:04:35;16.20;90.20
32787;DHT22;19139;49.372;8.580;2023-02-01T07:07:01;16.10;90.20
32787;DHT22;19139;49.372;8.580;2023-02-01T07:09:33;16.20;90.20
32787;DHT22;19139;49.372;8.580;2023-02-01T07:12:04;16.20;90.30
32787;DHT22;19139;49.372;8.580;2023-02-01T07:14:31;16.20;90.40
32787;DHT22;19139;49.372;8.580;2023-02-01T07:17:03;16.20;90.50
32787;DHT22;19139;49.372;8.580;2023-02-01T07:19:34;16.20;90.50
32787;DHT22;19139;49.372;8.580;2023-02-01T07:22:06;16.20;90.60
32787;DHT22;19139;49.372;8.580;2023-02-01T07:24:34;16.20;90.60
32787;DHT22;19139;49.372;8.580;2023-02-01T07:27:05;16.20;90.60
32787;DHT22;19139;49.372;8.580;2023-02-01T07:29:32;16.20;90.60
32787;DHT22;19139;49.372;8.580;2023-02-01T07:32:03;16.20;90.60
32787;DHT22;19139;49.372;8.580;2023-02-01T07:34:35;16.20;90.70
32787;DHT22;19139;49.372;8.580;2023-02-01T07:37:02;16.20;90.70
32787;DHT22;19139;49.372;8.580;2023-02-01T07:39:34;16.30;90.80
32787;DHT22;19139;49.372;8.580;2023-02-01T07:42:05;16.30;90.80
32787;DHT22;19139;49.372;8.580;2023-02-01T07:44:32;16.30;90.80
32787;DHT22;19139;49.372;8.580;2023-02-01T07:47:03;16.30;90.80
32787;DHT22;19139;49.372;8.580;2023-02-01T07:49:30;16.30;90.80
32787;DHT22;19139;49.372;8.580;2023-02-01T07:52:02;16.30;90.80
32787;DHT22;19139;49.372;8.580;2023-02-01T07:54:33;16.30;90.80
32787;DHT22;19139;49.372;8.580;2023-02-01T07:57:04;16.30;90.80
32787;DHT22;19139;49.372;8.580;2023-02-01T07:59:31;16.30;90.90
32787;DHT22;19139;49.372;8.580;2023-02-01T08:02:02;16.30;90.90
32787;DHT22;19139;49.372;8.580;2023-02-01T08:04:34;16.30;90.90
32787;DHT22;19139;49.372;8.580;2023-02-01T08:07:05;16.40;90.90
32787;DHT22;19139;49.372;8.580;2023-02-01T08:09:32;16.30;90.80
32787;DHT22;19139;49.372;8.580;2023-02-01T08:12:04;16.40;90.90
32787;DHT22;19139;49.372;8.580;2023-02-01T08:14:35;16.30;90.90
32787;DHT22;19139;49.372;8.580;2023-02-01T08:17:02;16.40;90.90
32787;DHT22;19139;49.372;8.580;2023-02-01T08:19:33;16.40;90.90
32787;DHT22;19139;49.372;8.580;2023-02-01T08:22:05;16.40;90.90
32787;DHT22;19139;49.372;8.580;2023-02-01T08:24:33;16.40;90.90
32787;DHT22;19139;49.372;8.580;2023-02-01T08:27:05;16.40;91.00
32787;DHT22;19139;49.372;8.580;2023-02-01T08:29:31;16.50;91.00
32787;DHT22;19139;49.372;8.580;2023-02-01T08:32:04;16.40;91.00
32787;DHT22;19139;49.372;8.580;2023-02-01T08:34:35;16.50;91.00
32787;DHT22;19139;49.372;8.580;2023-02-01T08:37:02;16.40;91.00
32787;DHT22;19139;49.372;8.580;2023-02-01T08:39:33;16.50;91.00
32787;DHT22;19139;49.372;8.580;2023-02-01T08:42:05;16.50;91.00
32787;DHT22;19139;49.372;8.580;2023-02-01T08:44:56;16.50;91.00
32787;DHT22;19139;49.372;8.580;2023-02-01T08:47:23;16.50;91.10
32787;DHT22;19139;49.372;8.580;2023-02-01T08:49:54;16.50;91.10
32787;DHT22;19139;49.372;8.580;2023-02-01T08:52:21;16.50;91.10
32787;DHT22;19139;49.372;8.580;2023-02-01T08:54:53;16.50;91.10
32787;DHT22;19139;49.372;8.580;2023-02-01T08:57:24;16.60;91.10
32787;DHT22;19139;49.372;8.580;2023-02-01T08:59:51;16.60;91.10
32787;DHT22;19139;49.372;8.580;2023-02-01T09:02:22;16.60;91.20
32787;DHT22;19139;49.372;8.580;2023-02-01T09:04:55;16.50;91.10
32787;DHT22;19139;49.372;8.580;2023-02-01T09:07:22;16.50;91.10
32787;DHT22;19139;49.372;8.580;2023-02-01T09:09:49;16.60;91.20
32787;DHT22;19139;49.372;8.580;2023-02-01T09:12:21;16.60;91.20
32787;DHT22;19139;49.372;8.580;2023-02-01T09:14:47;16.60;91.20
32787;DHT22;19139;49.372;8.580;2023-02-01T09:17:14;16.60;91.20
32787;DHT22;19139;49.372;8.580;2023-02-01T09:19:40;16.60;91.20
32787;DHT22;19139;49.372;8.580;2023-02-01T09:22:08;16.60;91.20
32787;DHT22;19139;49.372;8.580;2023-02-01T09:24:35;16.60;91.20
32787;DHT22;19139;49.372;8.580;2023-02-01T09:27:01;16.60;91.20
32787;DHT22;19139;49.372;8.580;2023-02-01T09:29:28;16.60;91.20
32787;DHT22;19139;49.372;8.580;2023-02-01T09:31:55;16.60;91.20
32787;DHT22;19139;49.372;8.580;2023-02-01T09:34:29;16.60;91.20
32787;DHT22;19139;49.372;8.580;2023-02-01T09:36:56;16.60;91.20
32787;DHT22;19139;49.372;8.580;2023-02-01T09:39:22;16.60;91.20
32787;DHT22;19139;49.372;8.580;2023-02-01T09:47:49;16.60;91.20
32787;DHT22;19139;49.372;8.580;2023-02-01T09:50:20;16.60;91.20
32787;DHT22;19139;49.372;8.580;2023-02-01T09:55:49;16.60;91.20
32787;DHT22;19139;49.372;8.580;2023-02-01T09:58:22;16.60;91.30
32787;DHT22;19139;49.372;8.580;2023-02-01T10:00:58;16.60;91.20
32787;DHT22;19139;49.372;8.580;2023-02-01T10:03:29;16.60;91.30
32787;DHT22;19139;49.372;8.580;2023-02-01T10:08:51;16.70;91.30
32787;DHT22;19139;49.372;8.580;2023-02-01T10:11:44;16.70;91.30
32787;DHT22;19139;49.372;8.580;2023-02-01T10:20:52;16.70;91.40
32787;DHT22;19139;49.372;8.580;2023-02-01T10:23:46;16.70;91.40
32787;DHT22;19139;49.372;8.580;2023-02-01T10:26:24;16.70;91.40
32787;DHT22;19139;49.372;8.580;2023-02-01T10:28:54;16.70;91.40
32787;DHT22;19139;49.372;8.580;2023-02-01T10:31:25;16.70;91.20
32787;DHT22;19139;49.372;8.580;2023-02-01T10:33:59;16.70;91.20
32787;DHT22;19139;49.372;8.580;2023-02-01T10:36:35;16.60;91.20
32787;DHT22;19139;49.372;8.580;2023-02-01T10:39:10;16.70;91.10
32787;DHT22;19139;49.372;8.580;2023-02-01T10:41:39;16.60;91.00
32787;DHT22;19139;49.372;8.580;2023-02-01T10:44:11;16.70;91.00
32787;DHT22;19139;49.372;8.580;2023-02-01T10:46:39;16.70;91.00
32787;DHT22;19139;49.372;8.580;2023-02-01T10:49:14;16.60;90.90
32787;DHT22;19139;49.372;8.580;2023-02-01T10:52:36;16.70;91.00
32787;DHT22;19139;49.372;8.580;2023-02-01T10:57:58;16.70;91.30
32787;DHT22;19139;49.372;8.580;2023-02-01T11:00:26;16.70;91.40
32787;DHT22;19139;49.372;8.580;2023-02-01T11:02:54;16.70;91.30
32787;DHT22;19139;49.372;8.580;2023-02-01T11:05:25;16.70;91.30
32787;DHT22;19139;49.372;8.580;2023-02-01T11:07:58;16.80;91.20
32787;DHT22;19139;49.372;8.580;2023-02-01T11:10:38;16.70;91.20
32787;DHT22;19139;49.372;8.580;2023-02-01T11:13:11;16.80;91.30
32787;DHT22;19139;49.372;8.580;2023-02-01T11:15:43;16.80;91.30
32787;DHT22;19139;49.372;8.580;2023-02-01T11:18:19;16.70;91.30
32787;DHT22;19139;49.372;8.580;2023-02-01T11:20:47;16.70;91.20
32787;DHT22;19139;49.372;8.580;2023-02-01T11:23:17;16.70;91.40
32787;DHT22;19139;49.372;8.580;2023-02-01T11:25:54;16.80;91.40
32787;DHT22;19139;49.372;8.580;2023-02-01T11:28:33;16.80;91.50
32787;DHT22;19139;49.372;8.580;2023-02-01T11:31:07;16.80;91.50
32787;DHT22;19139;49.372;8.580;2023-02-01T11:33:37;16.80;91.60
32787;DHT22;19139;49.372;8.580;2023-02-01T11:36:10;16.80;91.60
32787;DHT22;19139;49.372;8.580;2023-02-01T11:38:38;16.70;91.60
32787;DHT22;19139;49.372;8.580;2023-02-01T11:43:59;16.80;91.60
32787;DHT22;19139;49.372;8.580;2023-02-01T11:46:34;16.80;91.60
32787;DHT22;19139;49.372;8.580;2023-02-01T11:49:20;16.80;91.50
32787;DHT22;19139;49.372;8.580;2023-02-01T11:52:11;16.80;91.50
32787;DHT22;19139;49.372;8.580;2023-02-01T11:58:04;16.80;91.60
32787;DHT22;19139;49.372;8.580;2023-02-01T12:00:54;16.80;91.60
32787;DHT22;19139;49.372;8.580;2023-02-01T12:03:57;16.80;91.60
32787;DHT22;19139;49.372;8.580;2023-02-01T12:09:29;16.80;91.60
32787;DHT22;19139;49.372;8.580;2023-02-01T12:17:54;16.80;91.60
32787;DHT22;19139;49.372;8.580;2023-02-01T12:20:31;16.80;91.70
32787;DHT22;19139;49.372;8.580;2023-02-01T12:31:42;16.80;91.40
32787;DHT22;19139;49.372;8.580;2023-02-01T12:42:37;16.70;91.20
32787;DHT22;19139;49.372;8.580;2023-02-01T12:45:15;16.70;91.10
32787;DHT22;19139;49.372;8.580;2023-02-01T12:47:49;16.70;91.10
32787;DHT22;19139;49.372;8.580;2023-02-01T12:50:28;16.70;91.10
32787;DHT22;19139;49.372;8.580;2023-02-01T12:53:08;16.70;91.00
32787;DHT22;19139;49.372;8.580;2023-02-01T12:55:49;16.70;91.00
32787;DHT22;19139;49.372;8.580;2023-02-01T13:01:05;16.70;90.90
32787;DHT22;19139;49.372;8.580;2023-02-01T13:03:55;16.70;90.90
32787;DHT22;19139;49.372;8.580;2023-02-01T13:09:26;16.70;90.80
32787;DHT22;19139;49.372;8.580;2023-02-01T13:11:58;16.70;90.80
32787;DHT22;19139;49.372;8.580;2023-02-01T13:14:38;16.70;90.80
32787;DHT22;19139;49.372;8.580;2023-02-01T13:17:33;16.70;90.90
32787;DHT22;19139;49.372;8.580;2023-02-01T13:22:57;16.80;90.90
32787;DHT22;19139;49.372;8.580;2023-02-01T13:27:59;16.80;91.00
32787;DHT22;19139;49.372;8.580;2023-02-01T13:39:34;16.80;91.20
32787;DHT22;19139;49.372;8.580;2023-02-01T13:42:12;16.80;91.20
32787;DHT22;19139;49.372;8.580;2023-02-01T13:44:57;16.80;91.20
32787;DHT22;19139;49.372;8.580;2023-02-01T13:47:29;16.80;91.30
32787;DHT22;19139;49.372;8.580;2023-02-01T13:49:59;16.80;91.30
32787;DHT22;19139;49.372;8.580;2023-02-01T13:57:48;16.80;91.40
32787;DHT22;19139;49.372;8.580;2023-02-01T14:00:24;16.90;91.40
32787;DHT22;19139;49.372;8.580;2023-02-01T14:08:22;16.90;91.40
32787;DHT22;19139;49.372;8.580;2023-02-01T14:10:52;16.90;91.40
32787;DHT22;19139;49.372;8.580;2023-02-01T14:13:39;16.90;91.80
32787;DHT22;19139;49.372;8.580;2023-02-01T14:24:42;16.80;91.30
32787;DHT22;19139;49.372;8.580;2023-02-01T14:26:51;16.90;91.20
32787;DHT22;19139;49.372;8.580;2023-02-01T14:29:26;16.80;91.10
32787;DHT22;19139;49.372;8.580;2023-02-01T14:34:55;16.80;91.10
32787;DHT22;19139;49.372;8.580;2023-02-01T14:37:27;16.80;91.10
32787;DHT22;19139;49.372;8.580;2023-02-01T14:40:02;16.90;91.20
32787;DHT22;19139;49.372;8.580;2023-02-01T14:47:55;16.90;91.40
32787;DHT22;19139;49.372;8.580;2023-02-01T14:50:41;16.90;91.40
32787;DHT22;19139;49.372;8.580;2023-02-01T14:55:52;16.90;91.50
32787;DHT22;19139;49.372;8.580;2023-02-01T14:58:56;16.90;91.50
32787;DHT22;19139;49.372;8.580;2023-02-01T15:01:30;16.90;91.50
32787;DHT22;19139;49.372;8.580;2023-02-01T15:04:12;17.00;91.60
32787;DHT22;19139;49.372;8.580;2023-02-01T15:06:48;16.90;91.60
32787;DHT22;19139;49.372;8.580;2023-02-01T15:14:37;16.90;91.70
32787;DHT22;19139;49.372;8.580;2023-02-01T15:19:55;17.00;91.70
32787;DHT22;19139;49.372;8.580;2023-02-01T15:22:22;17.00;91.70
32787;DHT22;19139;49.372;8.580;2023-02-01T15:24:57;16.90;91.70
32787;DHT22;19139;49.372;8.580;2023-02-01T15:27:24;17.00;91.70
32787;DHT22;19139;49.372;8.580;2023-02-01T15:29:51;17.00;91.70
32787;DHT22;19139;49.372;8.580;2023-02-01T15:32:32;16.90;91.70
32787;DHT22;19139;49.372;8.580;2023-02-01T15:35:00;17.00;91.80
32787;DHT22;19139;49.372;8.580;2023-02-01T15:37:28;16.90;91.70
32787;DHT22;19139;49.372;8.580;2023-02-01T15:42:31;16.90;91.70
32787;DHT22;19139;49.372;8.580;2023-02-01T15:44:58;16.90;91.70
32787;DHT22;19139;49.372;8.580;2023-02-01T15:47:27;16.90;91.70
32787;DHT22;19139;49.372;8.580;2023-02-01T15:50:01;16.90;91.60
32787;DHT22;19139;49.372;8.580;2023-02-01T15:52:36;16.90;91.50
32787;DHT22;19139;49.372;8.580;2023-02-01T15:55:07;16.90;91.50
32787;DHT22;19139;49.372;8.580;2023-02-01T15:57:38;16.90;91.50
32787;DHT22;19139;49.372;8.580;2023-02-01T16:00:08;16.90;91.40
32787;DHT22;19139;49.372;8.580;2023-02-01T16:02:56;16.90;91.40
32787;DHT22;19139;49.372;8.580;2023-02-01T16:05:34;16.80;91.30
32787;DHT22;19139;49.372;8.580;2023-02-01T16:10:46;16.80;91.20
32787;DHT22;19139;49.372;8.580;2023-02-01T16:13:15;16.80;91.10
32787;DHT22;19139;49.372;8.580;2023-02-01T16:15:43;16.80;91.10
32787;DHT22;19139;49.372;8.580;2023-02-01T16:18:10;16.80;91.10
32787;DHT22;19139;49.372;8.580;2023-02-01T16:20:39;16.80;91.00
32787;DHT22;19139;49.372;8.580;2023-02-01T16:23:11;16.80;91.00
32787;DHT22;19139;49.372;8.580;2023-02-01T16:25:38;16.80;91.00
32787;DHT22;19139;49.372;8.580;2023-02-01T16:28:05;16.80;91.00
32787;DHT22;19139;49.372;8.580;2023-02-01T16:30:33;16.80;90.90
32787;DHT22;19139;49.372;8.580;2023-02-01T16:33:01;16.80;90.90
32787;DHT22;19139;49.372;8.580;2023-02-01T16:35:36;16.80;90.80
32787;DHT22;19139;49.372;8.580;2023-02-01T16:38:05;16.80;90.80
32787;DHT22;19139;49.372;8.580;2023-02-01T16:40:43;16.80;90.80
32787;DHT22;19139;49.372;8.580;2023-02-01T16:43:13;16.80;90.80
32787;DHT22;19139;49.372;8.580;2023-02-01T16:45:41;16.70;90.70
32787;DHT22;19139;49.372;8.580;2023-02-01T16:48:20;16.70;90.70
32787;DHT22;19139;49.372;8.580;2023-02-01T16:50:55;16.80;90.70
32787;DHT22;19139;49.372;8.580;2023-02-01T16:53:23;16.80;90.60
32787;DHT22;19139;49.372;8.580;2023-02-01T16:55:51;16.80;90.60
32787;DHT22;19139;49.372;8.580;2023-02-01T16:58:20;16.70;90.50
32787;DHT22;19139;49.372;8.580;2023-02-01T17:00:48;16.70;90.50
32787;DHT22;19139;49.372;8.580;2023-02-01T17:03:15;16.70;90.50
32787;DHT22;19139;49.372;8.580;2023-02-01T17:05:50;16.70;90.50
32787;DHT22;19139;49.372;8.580;2023-02-01T17:08:25;16.70;90.40
32787;DHT22;19139;49.372;8.580;2023-02-01T17:10:53;16.70;90.50
32787;DHT22;19139;49.372;8.580;2023-02-01T17:13:20;16.60;90.40
32787;DHT22;19139;49.372;8.580;2023-02-01T17:16:03;16.70;90.40
32787;DHT22;19139;49.372;8.580;2023-02-01T17:18:33;16.70;90.40
32787;DHT22;19139;49.372;8.580;2023-02-01T17:21:02;16.70;90.40
32787;DHT22;19139;49.372;8.580;2023-02-01T17:23:30;16.60;90.30
32787;DHT22;19139;49.372;8.580;2023-02-01T17:25:58;16.60;90.30
32787;DHT22;19139;49.372;8.580;2023-02-01T17:28:25;16.60;90.30
32787;DHT22;19139;49.372;8.580;2023-02-01T17:30:52;16.60;90.20
32787;DHT22;19139;49.372;8.580;2023-02-01T17:33:25;16.60;90.30
32787;DHT22;19139;49.372;8.580;2023-02-01T17:35:55;16.60;90.30
32787;DHT22;19139;49.372;8.580;2023-02-01T17:38:23;16.60;90.20
32787;DHT22;19139;49.372;8.580;2023-02-01T17:40:56;16.60;90.20
32787;DHT22;19139;49.372;8.580;2023-02-01T17:43:24;16.60;90.20
32787;DHT22;19139;49.372;8.580;2023-02-01T17:48:25;16.60;90.20
32787;DHT22;19139;49.372;8.580;2023-02-01T17:50:55;16.60;90.10
32787;DHT22;19139;49.372;8.580;2023-02-01T17:53:27;16.60;90.20
32787;DHT22;19139;49.372;8.580;2023-02-01T17:55:59;16.60;90.20
32787;DHT22;19139;49.372;8.580;2023-02-01T17:58:27;16.60;90.10
32787;DHT22;19139;49.372;8.580;2023-02-01T18:01:01;16.60;90.10
32787;DHT22;19139;49.372;8.580;2023-02-01T18:03:29;16.60;90.10
32787;DHT22;19139;49.372;8.580;2023-02-01T18:05:58;16.60;90.10
32787;DHT22;19139;49.372;8.580;2023-02-01T18:08:26;16.60;90.10
32787;DHT22;19139;49.372;8.580;2023-02-01T18:10:56;16.60;90.00
32787;DHT22;19139;49.372;8.580;2023-02-01T18:13:26;16.50;90.00
32787;DHT22;19139;49.372;8.580;2023-02-01T18:15:53;16.50;90.00
32787;DHT22;19139;49.372;8.580;2023-02-01T18:18:21;16.50;90.00
32787;DHT22;19139;49.372;8.580;2023-02-01T18:20:52;16.60;90.00
32787;DHT22;19139;49.372;8.580;2023-02-01T18:23:21;16.60;90.10
32787;DHT22;19139;49.372;8.580;2023-02-01T18:25:49;16.60;90.20